createdAt,value
2022-09-14T00:01:26.903Z,9.88
2022-09-14T00:04:15.442Z,9.05
2022-09-14T00:06:42.781Z,10.02
2022-09-14T00:09:15.017Z,10.45
2022-09-14T00:14:08.191Z,9.40
2022-09-14T00:16:38.603Z,10.32
2022-09-14T00:19:08.321Z,10.80
2022-09-14T00:21:39.292Z,10.68
2022-09-14T00:24:07.286Z,9.52
2022-09-14T00:26:34.588Z,10.73
2022-09-14T00:29:04.714Z,11.02
2022-09-14T00:31:37.222Z,11.38
2022-09-14T00:34:06.404Z,10.07
2022-09-14T00:36:37.286Z,10.50
2022-09-14T00:39:04.244Z,10.85
2022-09-14T00:41:34.243Z,11.30
2022-09-14T00:44:05.361Z,11.25
2022-09-14T00:46:36.946Z,11.10
2022-09-14T00:49:07.704Z,10.57
2022-09-14T00:51:37.478Z,11.17
2022-09-14T00:54:06.909Z,11.05
2022-09-14T00:56:34.081Z,11.75
2022-09-14T00:59:09.345Z,11.80
2022-09-14T01:01:36.406Z,11.52
2022-09-14T01:04:03.847Z,10.35
2022-09-14T01:06:43.653Z,11.68
2022-09-14T01:09:16.887Z,10.63
2022-09-14T01:12:02.083Z,10.82
2022-09-14T01:14:39.178Z,10.10
2022-09-14T01:17:13.605Z,10.57
2022-09-14T01:20:00.583Z,10.93
2022-09-14T01:22:50.452Z,11.07
2022-09-14T01:25:49.548Z,9.85
2022-09-14T01:28:25.061Z,9.93
2022-09-14T01:30:55.683Z,10.68
2022-09-14T01:33:38.135Z,9.43
2022-09-14T01:36:09.150Z,10.13
2022-09-14T01:38:47.357Z,9.90
2022-09-14T01:41:18.290Z,9.40
2022-09-14T01:43:51.737Z,9.45
2022-09-14T01:46:22.559Z,9.10
2022-09-14T01:49:03.068Z,10.18
2022-09-14T01:51:39.622Z,9.60
2022-09-14T01:54:31.363Z,9.55
2022-09-14T01:57:09.801Z,9.82
2022-09-14T01:59:40.751Z,9.13
2022-09-14T02:02:14.017Z,9.70
2022-09-14T02:04:53.061Z,10.23
2022-09-14T02:07:20.447Z,9.85
2022-09-14T02:09:48.320Z,9.45
2022-09-14T02:12:15.868Z,9.80
2022-09-14T02:14:45.142Z,9.10
2022-09-14T02:17:13.347Z,9.43
2022-09-14T02:19:47.614Z,9.27
2022-09-14T02:22:14.835Z,10.35
2022-09-14T02:24:41.871Z,9.15
2022-09-14T02:27:08.522Z,8.98
2022-09-14T02:29:35.782Z,9.30
2022-09-14T02:32:05.520Z,9.15
2022-09-14T02:34:37.986Z,8.68
2022-09-14T02:37:13.724Z,8.30
2022-09-14T02:39:51.809Z,8.00
2022-09-14T02:42:30.916Z,8.13
2022-09-14T02:45:11.181Z,8.02
2022-09-14T02:47:56.968Z,7.55
2022-09-14T02:50:51.573Z,7.22
2022-09-14T02:53:30.782Z,7.20
2022-09-14T02:56:07.835Z,8.18
2022-09-14T02:58:37.113Z,8.00
2022-09-14T03:01:05.556Z,7.93
2022-09-14T03:03:35.573Z,8.38
2022-09-14T03:06:03.746Z,7.45
2022-09-14T03:08:30.500Z,7.75
2022-09-14T03:10:57.512Z,7.72
2022-09-14T03:13:24.765Z,8.10
2022-09-14T03:15:51.571Z,7.43
2022-09-14T03:18:18.707Z,7.65
2022-09-14T03:20:45.623Z,7.95
2022-09-14T03:23:13.078Z,7.95
2022-09-14T03:25:42.665Z,8.13
2022-09-14T03:28:11.131Z,7.30
2022-09-14T03:30:38.084Z,6.80
2022-09-14T03:33:04.805Z,8.00
2022-09-14T03:35:32.219Z,7.60
2022-09-14T03:37:59.874Z,7.40
2022-09-14T03:40:27.470Z,6.37
2022-09-14T03:42:54.628Z,6.72
2022-09-14T03:45:21.851Z,6.55
2022-09-14T03:47:49.534Z,6.87
2022-09-14T03:50:19.286Z,5.97
2022-09-14T03:52:46.255Z,6.72
2022-09-14T03:55:12.911Z,7.68
2022-09-14T03:57:39.846Z,8.82
2022-09-14T04:00:09.057Z,8.15
2022-09-14T04:02:38.103Z,7.47
2022-09-14T04:05:05.541Z,7.87
2022-09-14T04:07:32.622Z,6.60
2022-09-14T04:09:59.238Z,6.30
2022-09-14T04:12:26.159Z,6.78
2022-09-14T04:14:52.886Z,6.37
2022-09-14T04:17:19.495Z,7.28
2022-09-14T04:19:46.436Z,6.80
2022-09-14T04:22:13.088Z,7.80
2022-09-14T04:24:39.840Z,8.02
2022-09-14T04:27:06.803Z,8.45
2022-09-14T04:29:33.486Z,7.62
2022-09-14T04:32:00.146Z,10.38
2022-09-14T04:34:27.203Z,6.32
2022-09-14T04:36:54.012Z,6.53
2022-09-14T04:39:20.726Z,7.43
2022-09-14T04:41:47.812Z,7.30
2022-09-14T04:44:14.670Z,9.07
2022-09-14T04:46:46.133Z,6.75
2022-09-14T04:49:16.559Z,6.15
2022-09-14T04:51:43.300Z,5.60
2022-09-14T04:54:13.331Z,7.85
2022-09-14T04:56:40.843Z,7.85
2022-09-14T04:59:08.075Z,5.97
2022-09-14T05:01:37.387Z,6.35
2022-09-14T05:04:05.867Z,6.30
2022-09-14T05:06:35.204Z,6.55
2022-09-14T05:09:04.469Z,5.85
2022-09-14T05:11:33.717Z,6.05
2022-09-14T05:14:01.251Z,5.20
2022-09-14T05:16:36.418Z,7.22
2022-09-14T05:19:07.103Z,7.95
2022-09-14T05:21:36.023Z,5.35
2022-09-14T05:24:06.235Z,5.90
2022-09-14T05:26:33.537Z,5.30
2022-09-14T05:29:01.744Z,6.22
2022-09-14T05:31:31.125Z,5.30
2022-09-14T05:33:58.657Z,5.68
2022-09-14T05:36:25.855Z,5.60
2022-09-14T05:38:52.881Z,6.18
2022-09-14T05:41:19.615Z,6.97
2022-09-14T05:43:46.500Z,5.80
2022-09-14T05:46:17.052Z,5.78
2022-09-14T05:48:44.437Z,11.60
2022-09-14T05:51:14.659Z,5.82
2022-09-14T05:53:42.593Z,5.97
2022-09-14T05:56:13.188Z,11.20
2022-09-14T05:58:41.363Z,6.80
2022-09-14T06:01:11.259Z,7.32
2022-09-14T06:03:38.951Z,6.15
2022-09-14T06:06:07.687Z,5.40
2022-09-14T06:08:35.299Z,5.37
2022-09-14T06:11:09.379Z,5.45
2022-09-14T06:13:37.720Z,5.60
2022-09-14T06:16:13.923Z,5.85
2022-09-14T06:18:42.375Z,6.10
2022-09-14T06:21:11.224Z,5.60
2022-09-14T06:23:38.507Z,5.82
2022-09-14T06:26:05.817Z,5.40
2022-09-14T06:28:35.401Z,6.85
2022-09-14T06:31:04.650Z,6.43
2022-09-14T06:33:32.107Z,7.37
2022-09-14T06:36:09.758Z,7.47
2022-09-14T06:38:36.465Z,6.37
2022-09-14T06:41:06.973Z,6.15
2022-09-14T06:43:37.532Z,6.55
2022-09-14T06:46:06.931Z,5.65
2022-09-14T06:48:40.123Z,5.30
2022-09-14T06:51:19.314Z,6.22
2022-09-14T06:53:46.966Z,6.00
2022-09-14T06:56:14.999Z,6.20
2022-09-14T06:58:42.059Z,5.43
2022-09-14T07:01:14.401Z,5.28
2022-09-14T07:03:43.868Z,5.50
2022-09-14T07:06:22.608Z,5.47
2022-09-14T07:08:50.863Z,5.65
2022-09-14T07:11:20.150Z,5.85
2022-09-14T07:13:47.530Z,6.40
2022-09-14T07:16:15.484Z,5.20
2022-09-14T07:18:42.205Z,5.43
2022-09-14T07:21:14.828Z,5.97
2022-09-14T07:23:44.006Z,5.40
2022-09-14T07:26:16.864Z,5.80
2022-09-14T07:28:45.839Z,5.78
2022-09-14T07:31:33.677Z,5.80
2022-09-14T07:34:03.302Z,5.15
2022-09-14T07:36:34.758Z,4.85
2022-09-14T07:39:04.867Z,6.53
2022-09-14T07:41:34.140Z,6.57
2022-09-14T07:44:02.537Z,5.87
2022-09-14T07:46:33.198Z,4.50
2022-09-14T07:49:02.741Z,4.62
2022-09-14T07:51:31.231Z,4.15
2022-09-14T07:54:00.823Z,5.95
2022-09-14T07:56:28.579Z,5.32
2022-09-14T07:59:11.598Z,4.70
2022-09-14T08:01:44.972Z,4.32
2022-09-14T08:04:11.819Z,4.93
2022-09-14T08:06:39.056Z,4.35
2022-09-14T08:09:07.686Z,4.32
2022-09-14T08:11:35.217Z,4.85
2022-09-14T08:14:04.666Z,4.65
2022-09-14T08:16:32.857Z,5.12
2022-09-14T08:19:01.517Z,4.68
2022-09-14T08:21:30.221Z,4.37
2022-09-14T08:23:59.742Z,4.85
2022-09-14T08:26:27.293Z,6.50
2022-09-14T08:28:55.469Z,4.20
2022-09-14T08:31:24.834Z,3.58
2022-09-14T08:34:02.788Z,3.70
2022-09-14T08:36:32.766Z,3.45
2022-09-14T08:39:01.314Z,5.75
2022-09-14T08:41:45.409Z,5.75
2022-09-14T08:44:11.994Z,4.18
2022-09-14T08:46:56.113Z,4.15
2022-09-14T08:49:39.889Z,3.90
2022-09-14T08:52:29.767Z,4.30
2022-09-14T08:54:59.364Z,4.57
2022-09-14T08:57:38.759Z,4.60
2022-09-14T09:00:15.320Z,4.18
2022-09-14T09:03:09.868Z,4.18
2022-09-14T09:05:43.878Z,3.90
2022-09-14T09:08:19.660Z,4.35
2022-09-14T09:10:47.975Z,6.03
2022-09-14T09:13:19.147Z,4.37
2022-09-14T09:15:55.299Z,4.10
2022-09-14T09:18:42.693Z,4.50
2022-09-14T09:21:22.957Z,4.82
2022-09-14T09:23:49.899Z,3.72
2022-09-14T09:26:28.386Z,3.78
2022-09-14T09:28:58.611Z,4.07
2022-09-14T09:31:34.785Z,3.50
2022-09-14T09:34:03.915Z,4.72
2022-09-14T09:36:37.239Z,5.68
2022-09-14T09:39:05.601Z,4.37
2022-09-14T09:41:44.410Z,4.00
2022-09-14T09:44:12.208Z,3.65
2022-09-14T09:47:01.021Z,3.50
2022-09-14T09:49:39.439Z,4.93
2022-09-14T09:52:10.227Z,4.07
2022-09-14T09:54:39.547Z,7.37
2022-09-14T09:57:21.800Z,4.62
2022-09-14T09:59:48.993Z,5.05
2022-09-14T10:02:31.927Z,4.20
2022-09-14T10:05:04.711Z,4.05
2022-09-14T10:07:53.079Z,5.10
2022-09-14T10:10:26.837Z,4.40
2022-09-14T10:12:56.410Z,4.43
2022-09-14T10:15:28.067Z,4.35
2022-09-14T10:18:13.237Z,7.43
2022-09-14T10:21:05.558Z,12.35
2022-09-14T10:23:38.515Z,5.55
2022-09-14T10:26:14.711Z,5.93
2022-09-14T10:28:46.857Z,4.87
2022-09-14T10:31:19.460Z,4.70
2022-09-14T10:33:47.750Z,6.57
2022-09-14T10:36:28.598Z,4.53
2022-09-14T10:39:31.010Z,5.95
2022-09-14T10:42:07.265Z,5.20
2022-09-14T10:44:59.485Z,5.10
2022-09-14T10:47:41.633Z,5.32
2022-09-14T10:52:57.114Z,5.30
2022-09-14T10:55:44.393Z,5.55
2022-09-14T10:58:27.651Z,5.85
2022-09-14T11:00:59.211Z,6.00
2022-09-14T11:03:30.998Z,6.37
2022-09-14T11:06:03.996Z,6.40
2022-09-14T11:08:37.899Z,5.80
2022-09-14T11:11:28.255Z,6.68
2022-09-14T11:14:02.572Z,7.50
2022-09-14T11:17:07.171Z,8.15
2022-09-14T11:20:02.172Z,8.18
2022-09-14T11:22:47.387Z,8.18
2022-09-14T11:25:22.134Z,8.13
2022-09-14T11:27:54.936Z,8.52
2022-09-14T11:30:24.941Z,8.02
2022-09-14T11:32:57.834Z,8.00
2022-09-14T11:35:29.062Z,9.02
2022-09-14T11:38:03.760Z,8.53
2022-09-14T11:40:46.088Z,8.20
2022-09-14T11:43:15.872Z,11.20
2022-09-14T11:45:52.820Z,9.32
2022-09-14T11:48:46.169Z,8.77
2022-09-14T11:51:17.227Z,8.82
2022-09-14T11:53:46.284Z,9.63
2022-09-14T11:56:32.465Z,8.90
2022-09-14T11:59:03.571Z,12.95
2022-09-14T12:01:32.749Z,10.50
2022-09-14T12:04:18.468Z,10.93
2022-09-14T12:06:51.296Z,10.07
2022-09-14T12:09:20.896Z,9.50
2022-09-14T12:11:55.446Z,18.65
2022-09-14T12:14:28.937Z,11.38
2022-09-14T12:23:15.404Z,13.10
2022-09-14T12:25:55.469Z,11.20
2022-09-14T12:28:37.669Z,13.32
2022-09-14T12:31:04.730Z,10.82
2022-09-14T12:33:34.349Z,12.88
2022-09-14T12:36:11.518Z,11.18
2022-09-14T12:38:38.500Z,10.85
2022-09-14T12:41:11.042Z,10.32
2022-09-14T12:43:38.125Z,10.52
2022-09-14T12:46:21.265Z,11.98
2022-09-14T12:48:48.389Z,11.30
2022-09-14T12:51:27.294Z,13.98
2022-09-14T12:54:09.223Z,11.85
2022-09-14T12:57:07.411Z,12.20
2022-09-14T12:59:48.053Z,12.25
2022-09-14T13:02:54.430Z,12.75
2022-09-14T13:05:25.214Z,13.38
2022-09-14T13:07:53.582Z,16.87
2022-09-14T13:10:31.648Z,12.43
2022-09-14T13:13:02.336Z,16.67
2022-09-14T13:15:34.830Z,13.77
2022-09-14T13:18:17.304Z,13.18
2022-09-14T13:21:21.206Z,14.13
2022-09-14T13:23:48.575Z,13.70
2022-09-14T13:26:26.022Z,12.80
2022-09-14T13:28:54.964Z,14.25
2022-09-14T13:31:31.900Z,15.50
2022-09-14T13:33:59.971Z,13.88
2022-09-14T13:36:30.293Z,15.05
2022-09-14T13:39:01.661Z,14.40
2022-09-14T13:43:57.993Z,15.07
2022-09-14T13:46:26.713Z,14.35
2022-09-14T13:48:54.725Z,15.80
2022-09-14T13:51:27.040Z,16.70
2022-09-14T13:53:56.517Z,18.00
2022-09-14T13:56:32.565Z,18.30
2022-09-14T13:59:10.572Z,18.30
2022-09-14T14:01:46.358Z,17.80
2022-09-14T14:04:34.818Z,16.70
2022-09-14T14:07:03.346Z,17.73
2022-09-14T14:09:44.919Z,17.60
2022-09-14T14:12:21.298Z,18.50
2022-09-14T14:15:03.806Z,19.70
2022-09-14T14:17:35.346Z,18.10
2022-09-14T14:20:30.931Z,18.77
2022-09-14T14:23:22.633Z,20.75
2022-09-14T14:28:28.661Z,17.67
2022-09-14T14:30:57.387Z,16.05
2022-09-14T14:33:25.289Z,17.60
2022-09-14T14:35:54.429Z,18.98
2022-09-14T14:38:23.434Z,19.98
2022-09-14T14:40:51.752Z,18.92
2022-09-14T14:43:25.377Z,19.45
2022-09-14T14:45:57.981Z,17.35
2022-09-14T14:48:26.267Z,19.52
2022-09-14T14:50:54.983Z,17.00
2022-09-14T14:53:23.364Z,21.02
2022-09-14T14:55:50.170Z,18.30
2022-09-14T14:58:19.160Z,21.85
2022-09-14T15:00:46.082Z,22.65
2022-09-14T15:03:13.725Z,22.02
2022-09-14T15:05:44.676Z,22.73
2022-09-14T15:08:12.877Z,22.13
2022-09-14T15:10:40.994Z,23.55
2022-09-14T15:13:09.928Z,22.45
2022-09-14T15:15:36.535Z,23.38
2022-09-14T15:18:03.634Z,22.20
2022-09-14T15:20:30.341Z,25.35
2022-09-14T15:22:57.138Z,22.05
2022-09-14T15:25:24.029Z,22.65
2022-09-14T15:27:50.754Z,22.95
2022-09-14T15:30:17.572Z,23.42
2022-09-14T15:32:44.776Z,24.45
2022-09-14T15:35:13.678Z,23.62
2022-09-14T15:37:41.301Z,23.87
2022-09-14T15:40:09.453Z,22.13
2022-09-14T15:42:36.168Z,25.48
2022-09-14T15:45:03.850Z,24.10
2022-09-14T15:47:35.599Z,25.48
2022-09-14T15:50:03.913Z,25.73
2022-09-14T15:52:31.050Z,25.90
2022-09-14T15:54:57.760Z,25.42
2022-09-14T15:57:24.427Z,23.02
2022-09-14T15:59:54.049Z,25.08
2022-09-14T16:02:20.907Z,23.80
2022-09-14T16:04:48.001Z,25.70
2022-09-14T16:07:15.644Z,22.58
2022-09-14T16:09:42.823Z,24.80
2022-09-14T16:12:11.320Z,23.85
2022-09-14T16:14:38.291Z,24.58
2022-09-14T16:17:05.862Z,25.37
2022-09-14T16:19:33.045Z,23.65
2022-09-14T16:21:59.894Z,23.83
2022-09-14T16:24:27.265Z,21.50
2022-09-14T16:26:54.746Z,19.25
2022-09-14T16:29:24.146Z,18.85
2022-09-14T16:31:51.886Z,21.95
2022-09-14T16:34:19.860Z,25.27
2022-09-14T16:36:47.451Z,27.95
2022-09-14T16:39:17.373Z,35.13
2022-09-14T16:41:45.004Z,28.45
2022-09-14T16:44:20.137Z,28.08
2022-09-14T16:46:48.847Z,26.77
2022-09-14T16:49:22.301Z,27.48
2022-09-14T16:51:52.022Z,25.88
2022-09-14T16:54:21.766Z,26.50
2022-09-14T16:56:48.725Z,24.87
2022-09-14T16:59:17.605Z,26.33
2022-09-14T17:01:47.155Z,26.40
2022-09-14T17:04:21.503Z,24.70
2022-09-14T17:06:50.434Z,28.20
2022-09-14T17:09:20.672Z,25.15
2022-09-14T17:11:48.622Z,28.15
2022-09-14T17:14:21.745Z,27.23
2022-09-14T17:16:49.447Z,26.90
2022-09-14T17:19:16.894Z,25.83
2022-09-14T17:21:45.206Z,28.30
2022-09-14T17:24:14.313Z,26.67
2022-09-14T17:26:42.556Z,27.35
2022-09-14T17:29:10.287Z,26.20
2022-09-14T17:31:40.164Z,23.85
2022-09-14T17:34:09.123Z,26.15
2022-09-14T17:36:35.793Z,27.40
2022-09-14T17:39:09.180Z,27.33
2022-09-14T17:41:39.062Z,25.90
2022-09-14T17:44:07.926Z,24.80
2022-09-14T17:46:35.981Z,25.48
2022-09-14T17:49:05.278Z,24.58
2022-09-14T17:51:34.258Z,24.27
2022-09-14T17:54:01.369Z,26.08
2022-09-14T17:56:29.574Z,24.87
2022-09-14T17:59:08.425Z,23.50
2022-09-14T18:01:35.269Z,24.12
2022-09-14T18:04:06.632Z,26.33
2022-09-14T18:06:35.737Z,20.52
2022-09-14T18:09:07.880Z,24.33
2022-09-14T18:11:34.825Z,23.70
2022-09-14T18:14:02.952Z,22.48
2022-09-14T18:16:29.996Z,22.15
2022-09-14T18:18:59.534Z,22.10
2022-09-14T18:21:26.613Z,21.55
2022-09-14T18:23:55.281Z,20.80
2022-09-14T18:26:23.192Z,25.80
2022-09-14T18:28:51.440Z,23.38
2022-09-14T18:31:19.793Z,20.73
2022-09-14T18:33:48.466Z,24.92
2022-09-14T18:36:15.295Z,25.83
2022-09-14T18:38:42.754Z,23.95
2022-09-14T18:41:11.578Z,21.65
2022-09-14T18:43:41.910Z,23.95
2022-09-14T18:46:08.942Z,21.23
2022-09-14T18:48:35.610Z,28.08
2022-09-14T18:51:04.566Z,22.50
2022-09-14T18:53:32.214Z,24.52
2022-09-14T18:56:07.255Z,25.10
2022-09-14T18:58:36.292Z,23.08
2022-09-14T19:01:03.696Z,25.85
2022-09-14T19:03:32.059Z,24.40
2022-09-14T19:06:04.691Z,24.37
2022-09-14T19:08:31.772Z,26.12
2022-09-14T19:11:08.036Z,23.77
2022-09-14T19:13:35.784Z,22.55
2022-09-14T19:16:11.612Z,24.20
2022-09-14T19:18:39.520Z,22.30
2022-09-14T19:21:10.832Z,24.55
2022-09-14T19:23:38.535Z,22.23
2022-09-14T19:26:17.834Z,25.75
2022-09-14T19:28:45.095Z,23.95
2022-09-14T19:31:14.623Z,27.73
2022-09-14T19:33:45.309Z,28.33
2022-09-14T19:36:16.177Z,28.83
2022-09-14T19:38:43.208Z,27.17
2022-09-14T19:41:10.288Z,27.58
2022-09-14T19:43:37.752Z,30.10
2022-09-14T19:46:06.034Z,29.35
2022-09-14T19:48:33.229Z,28.00
2022-09-14T19:51:01.491Z,26.12
2022-09-14T19:53:30.109Z,29.92
2022-09-14T19:55:57.048Z,32.08
2022-09-14T19:58:26.241Z,33.72
2022-09-14T20:00:54.932Z,30.05
2022-09-14T20:03:23.043Z,29.05
2022-09-14T20:06:00.172Z,29.87
2022-09-14T20:08:27.976Z,26.92
2022-09-14T20:10:54.932Z,28.15
2022-09-14T20:13:21.957Z,28.10
2022-09-14T20:15:49.128Z,26.85
2022-09-14T20:18:15.850Z,25.45
2022-09-14T20:20:42.535Z,28.58
2022-09-14T20:23:09.430Z,30.88
2022-09-14T20:25:36.277Z,27.08
2022-09-14T20:28:02.946Z,29.12
2022-09-14T20:30:29.933Z,30.77
2022-09-14T20:32:57.012Z,28.35
2022-09-14T20:35:23.671Z,26.98
2022-09-14T20:37:50.696Z,27.90
2022-09-14T20:40:17.600Z,27.52
2022-09-14T20:42:44.266Z,31.42
2022-09-14T20:45:11.718Z,32.28
2022-09-14T20:47:38.525Z,28.12
2022-09-14T20:50:05.804Z,26.67
2022-09-14T20:52:32.765Z,29.80
2022-09-14T20:54:59.424Z,26.45
2022-09-14T20:57:26.108Z,33.45
2022-09-14T20:59:53.046Z,26.10
2022-09-14T21:02:19.780Z,26.23
2022-09-14T21:04:47.227Z,29.63
2022-09-14T21:07:14.208Z,28.98
2022-09-14T21:09:40.840Z,31.35
2022-09-14T21:12:11.610Z,33.30
2022-09-14T21:14:38.569Z,35.73
2022-09-14T21:17:05.186Z,28.45
2022-09-14T21:19:31.977Z,30.02
2022-09-14T21:21:59.042Z,31.83
2022-09-14T21:24:26.137Z,33.45
2022-09-14T21:26:52.731Z,30.25
2022-09-14T21:29:23.646Z,44.95
2022-09-14T21:31:51.337Z,45.70
2022-09-14T21:34:18.364Z,40.50
2022-09-14T21:36:47.662Z,34.85
2022-09-14T21:39:17.199Z,33.67
2022-09-14T21:41:44.923Z,31.60
2022-09-14T21:44:13.407Z,33.88
2022-09-14T21:46:40.541Z,31.42
2022-09-14T21:49:07.258Z,34.20
2022-09-14T21:51:36.834Z,35.08
2022-09-14T21:54:06.617Z,33.42
2022-09-14T21:56:36.868Z,32.83
2022-09-14T21:59:08.707Z,29.73
2022-09-14T22:01:35.577Z,31.27
2022-09-14T22:04:03.867Z,32.10
2022-09-14T22:06:31.913Z,32.63
2022-09-14T22:08:59.969Z,33.13
2022-09-14T22:11:32.835Z,30.73
2022-09-14T22:14:07.557Z,29.60
2022-09-14T22:16:36.814Z,32.70
2022-09-14T22:19:12.050Z,29.52
2022-09-14T22:21:39.761Z,29.90
2022-09-14T22:24:11.448Z,31.95
2022-09-14T22:26:39.747Z,32.28
2022-09-14T22:29:08.986Z,32.15
2022-09-14T22:31:37.491Z,30.05
2022-09-14T22:34:04.318Z,28.33
2022-09-14T22:36:31.607Z,34.47
2022-09-14T22:39:00.205Z,33.22
2022-09-14T22:41:28.362Z,31.67
2022-09-14T22:43:56.116Z,33.67
2022-09-14T22:46:24.264Z,32.30
2022-09-14T22:48:51.834Z,34.47
2022-09-14T22:51:23.041Z,34.42
2022-09-14T22:53:50.288Z,36.20
2022-09-14T22:56:23.701Z,35.88
2022-09-14T22:58:51.303Z,32.90
2022-09-14T23:01:21.949Z,35.92
2022-09-14T23:03:49.397Z,32.05
2022-09-14T23:06:16.357Z,33.95
2022-09-14T23:08:43.056Z,34.67
2022-09-14T23:11:11.906Z,33.05
2022-09-14T23:13:40.616Z,31.92
2022-09-14T23:16:15.804Z,32.97
2022-09-14T23:18:43.043Z,36.00
2022-09-14T23:21:10.198Z,33.83
2022-09-14T23:23:38.285Z,33.92
2022-09-14T23:26:07.713Z,35.88
2022-09-14T23:28:35.014Z,34.38
2022-09-14T23:31:02.105Z,33.90
2022-09-14T23:33:30.040Z,38.20
2022-09-14T23:35:57.392Z,38.15
2022-09-14T23:38:24.487Z,34.00
2022-09-14T23:40:51.492Z,29.08
2022-09-14T23:43:19.279Z,32.05
2022-09-14T23:45:47.346Z,32.15
2022-09-14T23:48:15.299Z,31.95
2022-09-14T23:50:42.511Z,33.08
2022-09-14T23:53:09.229Z,34.75
2022-09-14T23:55:36.115Z,36.25
2022-09-14T23:58:03.351Z,35.72
